This is the latest recevied weather packets stored in our database for station/object EA4BHK-10. If no packets are shown the sender has not sent any weather packets the latest 10 day(s).
| Time | Temp. | Humidity | Pressure | Rain* | Wind** | Luminosity | Snow |
|---|---|---|---|---|---|---|---|
| 1778083778 | 18.33° C | 28% | 1009.5 hPa | - | - | - | - |
| 1778082878 | 18.89° C | 28% | 1009.4 hPa | - | - | - | - |
| 1778081978 | 19.44° C | 28% | 1009.2 hPa | - | - | - | - |
| 1778081078 | 19.44° C | 27% | 1009.4 hPa | - | - | - | - |
| 1778080178 | 18.89° C | 28% | 1009.7 hPa | - | - | - | - |
| 1778079280 | 20° C | 25% | 1009.3 hPa | - | - | - | - |
| 1778078378 | 20.56° C | 27% | 1009.3 hPa | - | - | - | - |
| 1778077478 | 20.56° C | 26% | 1009.5 hPa | - | - | - | - |
| 1778076578 | 20° C | 28% | 1009.9 hPa | - | - | - | - |
| 1778075678 | 20° C | 26% | 1010.3 hPa | - | - | - | - |
| 1778074785 | 19.44° C | 28% | 1010.5 hPa | - | - | - | - |
| 1778073878 | 19.44° C | 28% | 1010.6 hPa | - | - | - | - |
| 1778072978 | 18.33° C | 30% | 1011.2 hPa | - | - | - | - |
| 1778072085 | 20° C | 27% | 1010.6 hPa | - | - | - | - |
| 1778071178 | 20° C | 28% | 1011 hPa | - | - | - | - |
| 1778070278 | 17.78° C | 30% | 1011.7 hPa | - | - | - | - |
| 1778069378 | 17.78° C | 28% | 1012 hPa | - | - | - | - |
| 1778068478 | 16.67° C | 30% | 1012.5 hPa | - | - | - | - |
| 1778067578 | 18.33° C | 28% | 1012.1 hPa | - | - | - | - |
| 1778066678 | 18.33° C | 29% | 1012 hPa | - | - | - | - |
| 1778065779 | 18.89° C | 30% | 1012 hPa | - | - | - | - |
| 1778064878 | 18.89° C | 32% | 1012.1 hPa | - | - | - | - |
| 1778063985 | 18.33° C | 31% | 1012.4 hPa | - | - | - | - |
| 1778063080 | 17.22° C | 33% | 1012.7 hPa | - | - | - | - |
| 1778062178 | 16.67° C | 34% | 1013.2 hPa | - | - | - | - |
* Rain since midnight (hover to see other rain measurements)
** Current wind speed in m/s (hover to see current wind gust speed)